Time;durP1;ratioP1;P1;durP2;ratioP2;P2;SDS_P1;SDS_P2;PMS_P1;PMS_P2;Temp;Humidity;BMP_temperature;BMP_pressure;BME280_temperature;BME280_humidity;BME280_pressure;Samples;Min_cycle;Max_cycle;Signal;HPM_P1;HPM_P2
2021/12/27 00:00:06;;;;;;;;;;;20.70;32.30;;;;;;4971857;28;20362;-60
2021/12/27 00:02:32;;;;;;;;;;;20.70;32.30;;;;;;4954170;28;19914;-60
2021/12/27 00:04:57;;;;;;;;;;;20.70;32.30;;;;;;4981028;28;19974;-60
2021/12/27 00:07:23;;;;;;;;;;;20.70;32.40;;;;;;4951736;29;20397;-60
2021/12/27 00:09:49;;;;;;;;;;;20.70;32.30;;;;;;4951918;29;19918;-61
2021/12/27 00:12:14;;;;;;;;;;;20.70;32.30;;;;;;4951944;28;19919;-61
2021/12/27 00:14:40;;;;;;;;;;;20.70;32.20;;;;;;4945892;28;20286;-60
2021/12/27 00:17:05;;;;;;;;;;;20.70;32.30;;;;;;4952039;29;20355;-60
2021/12/27 00:19:32;;;;;;;;;;;20.60;32.20;;;;;;4952456;29;19926;-61
2021/12/27 00:21:57;;;;;;;;;;;20.60;32.20;;;;;;4951665;28;19921;-61
2021/12/27 00:24:24;;;;;;;;;;;20.60;32.20;;;;;;4951914;29;21309;-61
2021/12/27 00:26:52;;;;;;;;;;;20.60;32.20;;;;;;4951039;29;19963;-61
2021/12/27 00:29:17;;;;;;;;;;;20.60;32.10;;;;;;4949632;29;19915;-60
2021/12/27 00:31:42;;;;;;;;;;;20.60;32.20;;;;;;4951009;29;19977;-60
2021/12/27 00:34:08;;;;;;;;;;;20.60;32.10;;;;;;4955371;28;19997;-60
2021/12/27 00:36:33;;;;;;;;;;;20.60;32.10;;;;;;4955160;29;19910;-61
2021/12/27 00:38:59;;;;;;;;;;;20.60;32.10;;;;;;4955612;29;20309;-61
2021/12/27 00:41:24;;;;;;;;;;;20.60;32.10;;;;;;4970130;28;20290;-61
2021/12/27 00:43:50;;;;;;;;;;;20.60;32.00;;;;;;4954891;29;19915;-60
2021/12/27 00:46:15;;;;;;;;;;;20.60;32.10;;;;;;4955172;29;19954;-61
2021/12/27 00:48:41;;;;;;;;;;;20.60;32.10;;;;;;4955407;29;19923;-60
2021/12/27 00:51:08;;;;;;;;;;;20.60;32.10;;;;;;4953631;29;19915;-60
2021/12/27 00:53:34;;;;;;;;;;;20.60;32.10;;;;;;4944863;28;20402;-60
2021/12/27 00:55:59;;;;;;;;;;;20.60;32.00;;;;;;4954120;29;19914;-60
2021/12/27 00:58:25;;;;;;;;;;;20.60;32.10;;;;;;4955495;28;19918;-60
2021/12/27 01:00:51;;;;;;;;;;;20.60;32.10;;;;;;4949960;29;20017;-60
2021/12/27 01:03:17;;;;;;;;;;;20.60;32.00;;;;;;4953518;28;20009;-61
2021/12/27 01:05:42;;;;;;;;;;;20.60;31.90;;;;;;4952923;28;20415;-60
2021/12/27 01:08:08;;;;;;;;;;;20.70;32.00;;;;;;4894618;29;1709159;-61
2021/12/27 01:11:21;;;;;;;;;;;20.70;32.00;;;;;;4954558;29;20009;-60
2021/12/27 01:13:38;;;;;;;;;;;20.60;31.90;;;;;;4950875;29;19988;-60
2021/12/27 01:18:32;;;;;;;;;;;20.70;31.90;;;;;;4953788;29;20306;-60
2021/12/27 01:20:57;;;;;;;;;;;20.70;31.90;;;;;;4939800;29;19910;-61
2021/12/27 01:23:23;;;;;;;;;;;20.70;31.90;;;;;;4956215;29;19930;-60
2021/12/27 01:25:48;;;;;;;;;;;20.70;31.90;;;;;;4955785;29;19938;-60
2021/12/27 01:28:14;;;;;;;;;;;20.60;31.80;;;;;;4956381;29;19923;-61
2021/12/27 01:30:47;;;;;;;;;;;20.60;31.80;;;;;;4956035;28;19944;-60
2021/12/27 01:33:12;;;;;;;;;;;20.60;31.80;;;;;;4955559;28;20021;-61
2021/12/27 01:35:38;;;;;;;;;;;20.60;31.80;;;;;;4974596;28;20062;-61
2021/12/27 01:38:03;;;;;;;;;;;20.60;31.80;;;;;;4955681;29;20454;-60
2021/12/27 01:40:29;;;;;;;;;;;20.60;31.80;;;;;;4955462;29;20462;-61
2021/12/27 01:43:00;;;;;;;;;;;20.60;31.70;;;;;;4954148;28;19921;-61
2021/12/27 01:45:26;;;;;;;;;;;20.60;31.80;;;;;;4955617;29;19950;-61
2021/12/27 01:47:51;;;;;;;;;;;20.60;31.80;;;;;;4955433;29;19992;-60
2021/12/27 01:50:17;;;;;;;;;;;20.60;31.90;;;;;;4954288;29;20401;-60
2021/12/27 01:52:42;;;;;;;;;;;20.60;31.80;;;;;;4953924;29;19919;-60
2021/12/27 01:55:08;;;;;;;;;;;20.60;31.80;;;;;;4955137;29;19910;-60
2021/12/27 01:57:33;;;;;;;;;;;20.60;31.80;;;;;;4947557;29;19915;-60
2021/12/27 01:59:58;;;;;;;;;;;20.60;31.80;;;;;;4950110;29;19914;-61
2021/12/27 02:02:24;;;;;;;;;;;20.60;31.80;;;;;;4955115;29;19925;-60
2021/12/27 02:04:50;;;;;;;;;;;20.60;31.70;;;;;;4955411;28;19919;-60
2021/12/27 02:07:15;;;;;;;;;;;20.60;31.70;;;;;;4953694;29;19977;-60
2021/12/27 02:09:51;;;;;;;;;;;20.60;31.70;;;;;;4955344;29;19944;-61
2021/12/27 02:12:16;;;;;;;;;;;20.60;31.70;;;;;;4955486;28;19969;-61
2021/12/27 02:14:41;;;;;;;;;;;20.60;31.80;;;;;;4954785;29;19915;-60
2021/12/27 02:17:07;;;;;;;;;;;20.60;31.70;;;;;;4954441;29;19919;-61
2021/12/27 02:19:34;;;;;;;;;;;20.60;31.60;;;;;;4954950;29;19920;-60
2021/12/27 02:22:00;;;;;;;;;;;20.60;31.70;;;;;;4968536;28;20263;-60
2021/12/27 02:24:25;;;;;;;;;;;20.60;31.70;;;;;;4954762;29;20004;-60
2021/12/27 02:26:51;;;;;;;;;;;20.60;31.70;;;;;;4954298;29;20386;-60
2021/12/27 02:29:17;;;;;;;;;;;20.60;31.60;;;;;;4955139;29;20371;-61
2021/12/27 02:31:43;;;;;;;;;;;20.60;31.60;;;;;;4984758;28;22175;-60
2021/12/27 02:34:10;;;;;;;;;;;20.50;31.60;;;;;;4954562;28;19919;-60
2021/12/27 02:36:35;;;;;;;;;;;20.50;31.90;;;;;;4953914;29;19918;-60
2021/12/27 02:39:01;;;;;;;;;;;20.40;32.00;;;;;;4953523;28;20373;-60
2021/12/27 02:41:26;;;;;;;;;;;20.30;32.00;;;;;;4954047;29;19953;-60
2021/12/27 02:43:52;;;;;;;;;;;20.30;32.00;;;;;;4954033;29;19984;-60
2021/12/27 02:46:17;;;;;;;;;;;20.30;31.90;;;;;;4950599;29;20054;-60
2021/12/27 02:48:45;;;;;;;;;;;20.30;31.90;;;;;;4943701;29;20382;-60
2021/12/27 02:51:11;;;;;;;;;;;20.40;31.90;;;;;;4952864;28;19926;-60
2021/12/27 02:53:36;;;;;;;;;;;20.40;31.90;;;;;;4953160;28;19915;-60
2021/12/27 02:56:04;;;;;;;;;;;20.40;31.90;;;;;;4953882;29;20377;-60
2021/12/27 02:58:29;;;;;;;;;;;20.40;31.90;;;;;;4954753;28;20022;-60
2021/12/27 03:00:56;;;;;;;;;;;20.40;31.80;;;;;;4951310;28;20411;-62
2021/12/27 03:03:22;;;;;;;;;;;20.50;31.70;;;;;;4982164;28;19926;-60
2021/12/27 03:05:47;;;;;;;;;;;20.50;31.70;;;;;;4952240;29;20707;-60
2021/12/27 03:08:16;;;;;;;;;;;20.50;31.60;;;;;;4952550;28;19926;-61
2021/12/27 03:10:42;;;;;;;;;;;20.50;31.60;;;;;;4951082;29;20558;-60
2021/12/27 03:13:09;;;;;;;;;;;20.50;31.60;;;;;;4952632;28;19922;-60
2021/12/27 03:15:35;;;;;;;;;;;20.50;31.60;;;;;;4982545;28;19922;-60
2021/12/27 03:18:00;;;;;;;;;;;20.50;31.60;;;;;;4952856;29;19914;-60
2021/12/27 03:20:26;;;;;;;;;;;20.50;31.60;;;;;;4937179;29;19958;-60
2021/12/27 03:22:51;;;;;;;;;;;20.50;31.60;;;;;;4954269;28;19922;-61
2021/12/27 03:25:18;;;;;;;;;;;20.50;31.60;;;;;;4984524;28;19914;-60
2021/12/27 03:27:43;;;;;;;;;;;20.50;31.60;;;;;;4954249;28;19925;-61
2021/12/27 03:30:09;;;;;;;;;;;20.50;31.60;;;;;;4984589;28;20013;-60
2021/12/27 03:32:36;;;;;;;;;;;20.50;31.60;;;;;;4953881;28;19919;-60
2021/12/27 03:35:09;;;;;;;;;;;20.50;31.60;;;;;;4953466;28;20282;-60
2021/12/27 03:37:34;;;;;;;;;;;20.50;31.60;;;;;;4960495;28;20041;-60
2021/12/27 03:40:00;;;;;;;;;;;20.50;31.50;;;;;;4953560;28;19954;-61
2021/12/27 03:42:25;;;;;;;;;;;20.50;31.50;;;;;;4966422;28;19921;-60
2021/12/27 03:44:51;;;;;;;;;;;20.50;31.50;;;;;;4953337;29;19930;-60
2021/12/27 03:47:17;;;;;;;;;;;20.50;31.50;;;;;;4953083;29;19921;-60
2021/12/27 03:49:43;;;;;;;;;;;20.50;31.50;;;;;;4953069;29;20429;-60
2021/12/27 03:52:08;;;;;;;;;;;20.50;31.50;;;;;;4951894;28;19922;-60
2021/12/27 03:54:33;;;;;;;;;;;20.50;31.40;;;;;;4953453;29;19994;-60
2021/12/27 03:56:59;;;;;;;;;;;20.50;31.50;;;;;;4953697;29;19910;-62
2021/12/27 03:59:47;;;;;;;;;;;20.50;31.50;;;;;;4953759;29;19915;-63
2021/12/27 04:02:10;;;;;;;;;;;20.50;31.50;;;;;;4940217;29;19937;-61
2021/12/27 04:04:36;;;;;;;;;;;20.50;31.40;;;;;;4944701;28;19914;-61
2021/12/27 04:07:01;;;;;;;;;;;20.50;31.50;;;;;;4956121;29;20410;-61
2021/12/27 04:09:27;;;;;;;;;;;20.50;31.50;;;;;;4956444;29;19926;-61
2021/12/27 04:11:52;;;;;;;;;;;20.50;31.50;;;;;;4957465;28;19914;-60
2021/12/27 04:14:18;;;;;;;;;;;20.50;31.50;;;;;;4955730;29;20378;-61
2021/12/27 04:16:43;;;;;;;;;;;20.50;31.30;;;;;;4956580;29;20009;-60
2021/12/27 04:19:09;;;;;;;;;;;20.60;31.50;;;;;;4957329;29;19926;-60
2021/12/27 04:21:35;;;;;;;;;;;20.50;31.40;;;;;;4954908;29;19922;-60
2021/12/27 04:24:00;;;;;;;;;;;20.40;31.40;;;;;;4957087;28;19961;-60
2021/12/27 04:26:26;;;;;;;;;;;20.30;31.60;;;;;;4955668;29;19915;-60
2021/12/27 04:28:51;;;;;;;;;;;20.20;31.80;;;;;;4957368;29;19945;-60
2021/12/27 04:31:17;;;;;;;;;;;20.10;31.90;;;;;;4957072;28;20358;-60
2021/12/27 04:33:42;;;;;;;;;;;20.10;32.10;;;;;;4957188;29;20218;-60
2021/12/27 04:36:08;;;;;;;;;;;20.00;32.10;;;;;;4970878;28;19925;-60
2021/12/27 04:38:34;;;;;;;;;;;20.10;32.10;;;;;;4957584;28;19997;-60
2021/12/27 04:40:59;;;;;;;;;;;20.10;32.00;;;;;;4956233;28;20005;-60
2021/12/27 04:43:25;;;;;;;;;;;20.20;31.90;;;;;;4956136;29;19914;-60
2021/12/27 04:45:50;;;;;;;;;;;20.20;31.70;;;;;;4956330;29;19921;-61
2021/12/27 04:48:16;;;;;;;;;;;20.30;31.80;;;;;;4940727;28;20509;-60
2021/12/27 04:50:41;;;;;;;;;;;20.40;31.60;;;;;;4953486;29;19922;-60
2021/12/27 04:53:07;;;;;;;;;;;20.40;31.60;;;;;;4961027;28;19923;-60
2021/12/27 04:55:34;;;;;;;;;;;20.50;31.50;;;;;;4987176;28;20393;-62
2021/12/27 04:58:00;;;;;;;;;;;20.50;31.50;;;;;;4956655;28;19915;-60
2021/12/27 05:00:26;;;;;;;;;;;20.50;31.40;;;;;;4954589;29;20290;-60
2021/12/27 05:02:51;;;;;;;;;;;20.50;31.40;;;;;;4951055;29;19914;-61
2021/12/27 05:05:16;;;;;;;;;;;20.50;31.30;;;;;;4954138;29;19986;-60
2021/12/27 05:07:44;;;;;;;;;;;20.50;31.30;;;;;;4954473;29;19977;-60
2021/12/27 05:10:10;;;;;;;;;;;20.50;31.30;;;;;;4955127;28;19933;-61
2021/12/27 05:12:35;;;;;;;;;;;20.50;31.30;;;;;;4954621;29;19918;-60
2021/12/27 05:15:03;;;;;;;;;;;20.50;31.20;;;;;;4954709;29;19969;-60
2021/12/27 05:17:29;;;;;;;;;;;20.50;31.20;;;;;;4953790;28;19965;-60
2021/12/27 05:19:54;;;;;;;;;;;20.50;31.30;;;;;;4942870;28;19958;-60
2021/12/27 05:22:20;;;;;;;;;;;20.50;31.20;;;;;;4933862;29;19911;-60
2021/12/27 05:24:45;;;;;;;;;;;20.50;31.20;;;;;;4955970;28;19914;-60
2021/12/27 05:27:11;;;;;;;;;;;20.50;31.30;;;;;;4955866;29;20500;-60
2021/12/27 05:29:36;;;;;;;;;;;20.50;31.30;;;;;;4956211;29;19911;-61
2021/12/27 05:32:02;;;;;;;;;;;20.50;31.30;;;;;;4955701;28;19923;-60
2021/12/27 05:34:28;;;;;;;;;;;20.50;31.30;;;;;;4954951;29;20008;-60
2021/12/27 05:36:54;;;;;;;;;;;20.50;31.30;;;;;;4955064;29;20398;-61
2021/12/27 05:39:20;;;;;;;;;;;20.50;31.50;;;;;;4956052;29;20005;-60
2021/12/27 05:41:46;;;;;;;;;;;20.40;31.20;;;;;;4986242;28;20272;-61
2021/12/27 05:44:11;;;;;;;;;;;20.40;31.30;;;;;;4955647;28;19926;-60
2021/12/27 05:46:37;;;;;;;;;;;20.40;31.30;;;;;;4952656;28;19915;-60
2021/12/27 05:49:02;;;;;;;;;;;20.50;31.30;;;;;;4955145;29;19925;-61
2021/12/27 05:51:28;;;;;;;;;;;20.50;31.30;;;;;;4954420;29;20494;-61
2021/12/27 05:53:53;;;;;;;;;;;20.50;31.30;;;;;;4953771;29;19993;-60
2021/12/27 05:56:19;;;;;;;;;;;20.50;31.30;;;;;;4955004;29;19926;-61
2021/12/27 05:58:45;;;;;;;;;;;20.50;31.30;;;;;;4955537;28;20379;-60
2021/12/27 06:01:10;;;;;;;;;;;20.50;31.30;;;;;;4955111;29;20005;-61
2021/12/27 06:03:36;;;;;;;;;;;20.50;31.20;;;;;;4949344;28;19914;-60
2021/12/27 06:06:01;;;;;;;;;;;20.50;31.30;;;;;;4954769;29;19965;-60
2021/12/27 06:08:27;;;;;;;;;;;20.50;31.20;;;;;;4986024;28;19998;-61
2021/12/27 06:10:52;;;;;;;;;;;20.50;31.20;;;;;;4955382;29;19973;-61
2021/12/27 06:13:18;;;;;;;;;;;20.50;31.30;;;;;;4954775;29;19928;-60
2021/12/27 06:15:43;;;;;;;;;;;20.60;31.20;;;;;;4954770;29;19961;-60
2021/12/27 06:18:08;;;;;;;;;;;20.50;31.10;;;;;;4954741;29;19914;-60
2021/12/27 06:20:34;;;;;;;;;;;20.60;31.20;;;;;;4954340;29;19914;-60
2021/12/27 06:22:59;;;;;;;;;;;20.60;31.20;;;;;;4986065;28;19974;-61
2021/12/27 06:25:25;;;;;;;;;;;20.60;31.20;;;;;;4955073;29;20338;-60
2021/12/27 06:27:50;;;;;;;;;;;20.60;31.20;;;;;;4954288;28;19915;-61
2021/12/27 06:30:16;;;;;;;;;;;20.60;31.20;;;;;;4969252;28;19957;-60
2021/12/27 06:32:42;;;;;;;;;;;20.60;31.20;;;;;;4954791;29;19922;-60
2021/12/27 06:35:08;;;;;;;;;;;20.60;31.20;;;;;;4954099;28;20000;-60
2021/12/27 06:37:33;;;;;;;;;;;20.50;31.10;;;;;;4969383;28;19922;-61
2021/12/27 06:39:59;;;;;;;;;;;20.50;31.20;;;;;;4955152;29;19965;-61
2021/12/27 06:42:24;;;;;;;;;;;20.50;31.20;;;;;;4954100;28;20283;-61
2021/12/27 06:44:50;;;;;;;;;;;20.60;31.30;;;;;;4954064;29;19915;-60
2021/12/27 06:47:15;;;;;;;;;;;20.50;31.20;;;;;;4948628;29;19924;-60
2021/12/27 06:49:42;;;;;;;;;;;20.50;31.20;;;;;;4954626;29;19917;-60
2021/12/27 06:52:08;;;;;;;;;;;20.60;31.30;;;;;;4953162;28;19993;-60
2021/12/27 06:54:33;;;;;;;;;;;20.50;31.20;;;;;;4953945;29;19922;-60
2021/12/27 06:57:00;;;;;;;;;;;20.60;31.20;;;;;;4953763;29;20391;-60
2021/12/27 06:59:26;;;;;;;;;;;20.60;31.20;;;;;;4953877;28;19969;-61
2021/12/27 07:01:52;;;;;;;;;;;20.60;31.10;;;;;;4952114;28;20696;-60
2021/12/27 07:04:17;;;;;;;;;;;20.60;31.20;;;;;;4948247;29;20025;-61
2021/12/27 07:06:42;;;;;;;;;;;20.60;31.20;;;;;;4982687;28;19953;-60
2021/12/27 07:09:08;;;;;;;;;;;20.60;31.10;;;;;;4953094;28;19972;-60
2021/12/27 07:11:33;;;;;;;;;;;20.60;31.10;;;;;;4952015;29;19918;-61
2021/12/27 07:13:59;;;;;;;;;;;20.60;31.00;;;;;;4950857;29;19997;-60
2021/12/27 07:16:26;;;;;;;;;;;20.60;31.10;;;;;;4953423;28;19977;-60
2021/12/27 07:18:52;;;;;;;;;;;20.60;31.10;;;;;;4953426;29;19914;-60
2021/12/27 07:21:17;;;;;;;;;;;20.60;31.20;;;;;;4952871;28;20438;-60
2021/12/27 07:23:44;;;;;;;;;;;20.60;31.10;;;;;;4954351;29;19915;-60
2021/12/27 07:26:10;;;;;;;;;;;20.60;31.10;;;;;;4953662;29;19934;-60
2021/12/27 07:28:35;;;;;;;;;;;20.60;31.20;;;;;;4954298;29;20005;-60
2021/12/27 07:31:00;;;;;;;;;;;20.60;31.20;;;;;;4953374;29;19914;-61
2021/12/27 07:33:26;;;;;;;;;;;20.60;31.20;;;;;;4953640;29;19922;-60
2021/12/27 07:35:51;;;;;;;;;;;20.60;31.20;;;;;;4949952;29;20005;-60
2021/12/27 07:38:17;;;;;;;;;;;20.50;31.10;;;;;;4984280;28;19922;-60
2021/12/27 07:40:42;;;;;;;;;;;20.50;31.20;;;;;;4968509;28;19925;-61
2021/12/27 07:43:08;;;;;;;;;;;20.50;31.20;;;;;;4953227;29;19919;-61
2021/12/27 07:45:33;;;;;;;;;;;20.50;31.20;;;;;;4952529;29;19918;-61
2021/12/27 07:47:58;;;;;;;;;;;20.50;31.20;;;;;;4952834;29;19930;-60
2021/12/27 07:50:24;;;;;;;;;;;20.50;31.20;;;;;;4952297;29;20370;-60
2021/12/27 07:52:50;;;;;;;;;;;20.50;31.20;;;;;;4953636;29;19922;-61
2021/12/27 07:55:16;;;;;;;;;;;20.50;31.20;;;;;;4968343;28;19914;-60
2021/12/27 07:57:41;;;;;;;;;;;20.50;31.20;;;;;;4953189;29;19924;-60
2021/12/27 08:00:07;;;;;;;;;;;20.50;31.20;;;;;;4953096;29;20442;-60
2021/12/27 08:02:33;;;;;;;;;;;20.50;31.10;;;;;;4951382;28;20035;-60
2021/12/27 08:04:58;;;;;;;;;;;20.60;31.10;;;;;;4953646;28;19966;-61
2021/12/27 08:07:24;;;;;;;;;;;20.60;31.10;;;;;;4949859;28;20338;-60
2021/12/27 08:09:49;;;;;;;;;;;20.60;31.00;;;;;;4953181;28;19918;-60
2021/12/27 08:12:15;;;;;;;;;;;20.60;31.10;;;;;;4953312;29;19937;-60
2021/12/27 08:14:40;;;;;;;;;;;20.60;31.00;;;;;;4964065;28;20334;-60
2021/12/27 08:17:06;;;;;;;;;;;20.60;31.10;;;;;;4953519;29;19914;-61
2021/12/27 08:19:33;;;;;;;;;;;20.60;31.10;;;;;;4953732;29;20009;-61
2021/12/27 08:21:58;;;;;;;;;;;20.60;31.20;;;;;;4951733;28;19964;-60
2021/12/27 08:24:24;;;;;;;;;;;20.60;31.10;;;;;;4968236;28;19946;-60
2021/12/27 08:26:49;;;;;;;;;;;20.60;31.10;;;;;;4952504;28;19915;-61
2021/12/27 08:29:15;;;;;;;;;;;20.60;31.20;;;;;;4951721;29;20005;-61
2021/12/27 08:31:40;;;;;;;;;;;20.60;31.10;;;;;;4952652;29;20013;-60
2021/12/27 08:34:06;;;;;;;;;;;20.60;31.20;;;;;;4953605;28;20383;-60
2021/12/27 08:36:31;;;;;;;;;;;20.60;31.20;;;;;;4952672;29;20361;-60
2021/12/27 08:39:00;;;;;;;;;;;20.60;31.20;;;;;;4953300;29;19961;-60
2021/12/27 08:41:27;;;;;;;;;;;20.60;31.20;;;;;;4983978;28;20283;-61
2021/12/27 08:43:57;;;;;;;;;;;20.60;31.20;;;;;;4952934;29;19919;-60
2021/12/27 08:46:22;;;;;;;;;;;20.60;31.20;;;;;;4953842;28;19918;-61
2021/12/27 08:48:47;;;;;;;;;;;20.60;31.20;;;;;;4953572;29;19914;-60
2021/12/27 08:51:13;;;;;;;;;;;20.50;31.20;;;;;;4952077;28;19918;-61
2021/12/27 08:53:40;;;;;;;;;;;20.50;31.20;;;;;;4956817;29;19919;-61
2021/12/27 08:56:05;;;;;;;;;;;20.50;31.20;;;;;;4971710;28;19910;-61
2021/12/27 08:58:31;;;;;;;;;;;20.50;31.30;;;;;;4945063;29;20298;-60
2021/12/27 09:00:56;;;;;;;;;;;20.50;31.30;;;;;;4956579;29;20403;-60
2021/12/27 09:03:21;;;;;;;;;;;20.50;31.40;;;;;;4951866;29;20018;-60
2021/12/27 09:05:47;;;;;;;;;;;20.50;31.40;;;;;;4983354;28;19920;-62
2021/12/27 09:08:12;;;;;;;;;;;20.50;31.40;;;;;;4955096;29;19927;-60
2021/12/27 09:10:38;;;;;;;;;;;20.50;31.30;;;;;;4954891;29;19914;-60
2021/12/27 09:13:03;;;;;;;;;;;20.50;31.30;;;;;;4955080;29;20402;-60
2021/12/27 09:15:29;;;;;;;;;;;20.60;31.30;;;;;;4985542;28;19915;-60
2021/12/27 09:17:55;;;;;;;;;;;20.60;31.30;;;;;;4955205;28;20005;-60
2021/12/27 09:20:21;;;;;;;;;;;20.60;31.30;;;;;;4954008;29;20632;-60
2021/12/27 09:22:47;;;;;;;;;;;20.60;31.30;;;;;;4956827;28;20461;-60
2021/12/27 09:25:12;;;;;;;;;;;20.60;31.30;;;;;;4955281;28;19926;-60
2021/12/27 09:27:37;;;;;;;;;;;20.50;31.20;;;;;;4954973;29;20021;-60
2021/12/27 09:30:03;;;;;;;;;;;20.50;31.30;;;;;;4968089;28;19925;-60
2021/12/27 09:32:29;;;;;;;;;;;20.60;31.30;;;;;;4952451;28;19922;-60
2021/12/27 09:34:54;;;;;;;;;;;20.60;31.30;;;;;;4964072;28;20428;-61
2021/12/27 09:37:20;;;;;;;;;;;20.60;31.30;;;;;;4963217;28;20400;-60
2021/12/27 09:39:52;;;;;;;;;;;20.60;31.30;;;;;;4955260;28;19922;-60
2021/12/27 09:42:18;;;;;;;;;;;20.60;31.30;;;;;;4953974;29;19922;-60
2021/12/27 09:44:44;;;;;;;;;;;20.60;31.40;;;;;;4953181;28;19914;-61
2021/12/27 09:47:09;;;;;;;;;;;20.60;31.50;;;;;;4955188;29;19914;-60
2021/12/27 09:49:34;;;;;;;;;;;20.60;31.70;;;;;;4952020;29;19960;-60
2021/12/27 09:52:00;;;;;;;;;;;20.60;31.90;;;;;;4968202;28;19920;-60
2021/12/27 09:54:26;;;;;;;;;;;20.60;32.20;;;;;;4974768;28;19917;-60
2021/12/27 09:56:51;;;;;;;;;;;20.50;32.30;;;;;;4955744;29;19917;-60
2021/12/27 09:59:16;;;;;;;;;;;20.50;32.50;;;;;;4955850;29;19917;-60
2021/12/27 10:01:42;;;;;;;;;;;20.50;32.70;;;;;;4954404;29;19922;-61
2021/12/27 10:04:07;;;;;;;;;;;20.50;32.90;;;;;;4953666;28;19918;-61
2021/12/27 10:06:33;;;;;;;;;;;20.50;33.00;;;;;;4985494;28;19918;-61
2021/12/27 10:08:59;;;;;;;;;;;20.50;33.00;;;;;;4955181;29;19926;-61
2021/12/27 10:11:25;;;;;;;;;;;20.50;33.10;;;;;;4953715;28;19918;-61
2021/12/27 10:13:58;;;;;;;;;;;20.40;33.00;;;;;;4955502;28;19914;-61
2021/12/27 10:16:24;;;;;;;;;;;20.40;33.10;;;;;;4949415;28;19919;-60
2021/12/27 10:18:53;;;;;;;;;;;20.40;33.20;;;;;;4969008;28;19941;-61
2021/12/27 10:21:19;;;;;;;;;;;20.40;33.30;;;;;;4954489;28;19915;-61
2021/12/27 10:23:44;;;;;;;;;;;20.40;33.40;;;;;;4953472;29;19965;-61
2021/12/27 10:26:15;;;;;;;;;;;20.40;33.50;;;;;;4948045;29;19919;-61
2021/12/27 10:28:40;;;;;;;;;;;20.30;33.50;;;;;;4953575;28;20383;-61
2021/12/27 10:31:05;;;;;;;;;;;20.30;33.50;;;;;;4954806;29;19957;-61
2021/12/27 10:33:33;;;;;;;;;;;20.20;33.60;;;;;;4954991;29;19968;-61
2021/12/27 10:35:58;;;;;;;;;;;20.30;33.90;;;;;;4954331;29;19918;-61
2021/12/27 10:38:25;;;;;;;;;;;20.30;33.70;;;;;;4951008;29;20384;-61
2021/12/27 10:40:51;;;;;;;;;;;20.20;33.60;;;;;;4953859;29;19917;-61
2021/12/27 10:43:17;;;;;;;;;;;20.20;33.70;;;;;;4954941;28;19942;-61
2021/12/27 10:45:45;;;;;;;;;;;20.20;33.70;;;;;;4985709;28;20390;-61
2021/12/27 10:48:10;;;;;;;;;;;20.20;33.60;;;;;;4953667;29;19933;-61
2021/12/27 10:50:38;;;;;;;;;;;20.20;33.80;;;;;;4968759;28;20427;-61
2021/12/27 10:53:08;;;;;;;;;;;20.20;33.70;;;;;;4953553;29;20379;-61
2021/12/27 10:55:37;;;;;;;;;;;20.20;33.70;;;;;;4954569;28;20383;-60
2021/12/27 10:58:08;;;;;;;;;;;20.20;33.80;;;;;;4945482;29;20252;-61
2021/12/27 11:00:34;;;;;;;;;;;20.20;33.80;;;;;;4935413;29;19948;-61
2021/12/27 11:03:02;;;;;;;;;;;20.20;33.80;;;;;;4935803;28;19941;-61
2021/12/27 11:05:28;;;;;;;;;;;20.20;33.60;;;;;;4973207;28;19922;-61
2021/12/27 11:07:54;;;;;;;;;;;20.20;33.60;;;;;;4984019;28;19926;-61
2021/12/27 11:10:20;;;;;;;;;;;20.20;33.60;;;;;;5000151;28;19911;-62
2021/12/27 11:12:47;;;;;;;;;;;20.20;33.60;;;;;;4999877;28;19914;-61
2021/12/27 11:15:12;;;;;;;;;;;20.20;33.60;;;;;;4952193;28;19910;-61
2021/12/27 11:17:38;;;;;;;;;;;20.20;33.60;;;;;;4952954;29;19914;-61
2021/12/27 11:20:05;;;;;;;;;;;20.20;33.60;;;;;;4952465;28;19997;-61
2021/12/27 11:22:30;;;;;;;;;;;20.20;33.60;;;;;;4952447;28;19910;-61
2021/12/27 11:24:56;;;;;;;;;;;20.20;33.60;;;;;;4953296;29;19910;-61
2021/12/27 11:27:21;;;;;;;;;;;20.20;33.60;;;;;;4954045;29;19910;-61
2021/12/27 11:30:06;;;;;;;;;;;20.20;33.60;;;;;;4957730;28;19917;-61
2021/12/27 11:32:31;;;;;;;;;;;20.20;33.60;;;;;;4968741;28;19918;-61
2021/12/27 11:34:57;;;;;;;;;;;20.20;33.60;;;;;;4954220;29;19918;-61
2021/12/27 11:37:39;;;;;;;;;;;20.20;33.60;;;;;;4953335;28;19933;-61
2021/12/27 11:40:08;;;;;;;;;;;20.20;33.60;;;;;;4953839;28;19922;-61
2021/12/27 11:42:52;;;;;;;;;;;20.20;33.60;;;;;;4954203;28;19914;-61
2021/12/27 11:45:36;;;;;;;;;;;20.20;33.60;;;;;;4953718;29;19915;-61
2021/12/27 11:48:08;;;;;;;;;;;20.20;33.60;;;;;;4951950;29;19910;-62
2021/12/27 11:50:37;;;;;;;;;;;20.20;33.60;;;;;;4984117;28;19918;-61
2021/12/27 11:53:06;;;;;;;;;;;20.20;33.60;;;;;;4984662;28;19966;-61
2021/12/27 11:55:38;;;;;;;;;;;20.20;34.20;;;;;;4953640;29;19911;-61
2021/12/27 11:58:03;;;;;;;;;;;20.20;33.60;;;;;;4954011;28;19942;-61
2021/12/27 12:00:32;;;;;;;;;;;20.20;33.60;;;;;;4952341;29;19911;-61
2021/12/27 12:03:01;;;;;;;;;;;20.20;33.60;;;;;;4953821;28;19910;-61
2021/12/27 12:05:36;;;;;;;;;;;20.20;33.60;;;;;;4952544;29;19910;-61
2021/12/27 12:08:02;;;;;;;;;;;20.20;33.60;;;;;;4953657;28;20310;-61
2021/12/27 12:10:27;;;;;;;;;;;20.20;33.60;;;;;;4984619;28;19919;-61
2021/12/27 12:13:11;;;;;;;;;;;20.20;33.30;;;;;;4952391;29;19923;-60
2021/12/27 12:15:37;;;;;;;;;;;20.20;33.40;;;;;;4953338;29;19911;-61
2021/12/27 12:18:14;;;;;;;;;;;20.20;33.40;;;;;;4953859;29;19914;-61
2021/12/27 12:20:40;;;;;;;;;;;20.20;33.40;;;;;;4967587;28;20270;-61
2021/12/27 12:23:06;;;;;;;;;;;20.20;33.50;;;;;;4953704;29;19914;-61
2021/12/27 12:25:32;;;;;;;;;;;20.20;33.50;;;;;;4952044;28;19914;-61
2021/12/27 12:27:58;;;;;;;;;;;20.20;33.40;;;;;;4937560;29;20014;-61
2021/12/27 12:30:26;;;;;;;;;;;20.20;33.40;;;;;;4947889;29;19954;-61
2021/12/27 12:33:07;;;;;;;;;;;20.20;33.40;;;;;;4988006;28;19921;-61
2021/12/27 12:35:33;;;;;;;;;;;20.30;33.50;;;;;;4987753;28;19925;-61
2021/12/27 12:38:12;;;;;;;;;;;20.30;33.40;;;;;;4972129;28;20017;-61
2021/12/27 12:40:37;;;;;;;;;;;20.20;33.30;;;;;;4957023;28;19921;-61
2021/12/27 12:43:02;;;;;;;;;;;20.30;33.40;;;;;;4957162;29;20454;-61
2021/12/27 12:45:28;;;;;;;;;;;20.30;33.40;;;;;;4955519;29;19914;-61
2021/12/27 12:47:54;;;;;;;;;;;20.30;33.30;;;;;;4956061;29;20439;-61
2021/12/27 12:50:20;;;;;;;;;;;20.30;33.30;;;;;;4971022;28;19915;-61
2021/12/27 12:52:56;;;;;;;;;;;20.30;33.30;;;;;;4972067;28;19922;-61
2021/12/27 12:55:22;;;;;;;;;;;20.30;33.30;;;;;;4957005;28;19911;-61
2021/12/27 12:57:48;;;;;;;;;;;20.30;33.30;;;;;;4955656;29;19914;-61
2021/12/27 13:00:14;;;;;;;;;;;20.30;33.30;;;;;;4956774;28;19918;-62
2021/12/27 13:02:41;;;;;;;;;;;20.20;33.30;;;;;;4971906;28;19949;-61
2021/12/27 13:05:07;;;;;;;;;;;20.30;33.30;;;;;;4984156;28;20421;-61
2021/12/27 13:07:33;;;;;;;;;;;20.20;33.20;;;;;;4952675;29;19918;-61
2021/12/27 13:09:58;;;;;;;;;;;20.30;33.40;;;;;;4955371;29;19911;-61
2021/12/27 13:12:25;;;;;;;;;;;20.30;33.30;;;;;;4954697;29;19919;-61
2021/12/27 13:14:51;;;;;;;;;;;20.30;33.30;;;;;;4984669;28;19922;-61
2021/12/27 13:17:17;;;;;;;;;;;20.30;33.30;;;;;;4935562;28;19915;-61
2021/12/27 13:20:02;;;;;;;;;;;20.30;33.30;;;;;;4935782;29;19919;-61
2021/12/27 13:22:47;;;;;;;;;;;20.30;33.30;;;;;;4966201;28;19922;-61
2021/12/27 13:25:13;;;;;;;;;;;20.30;33.30;;;;;;4935853;29;19946;-61
2021/12/27 13:27:39;;;;;;;;;;;20.20;33.20;;;;;;4937072;28;20055;-61
2021/12/27 13:30:07;;;;;;;;;;;20.20;33.20;;;;;;4948896;29;20454;-61
2021/12/27 13:32:33;;;;;;;;;;;20.20;33.20;;;;;;4956224;29;19924;-61
2021/12/27 13:34:58;;;;;;;;;;;20.20;33.30;;;;;;4956445;28;19915;-61
2021/12/27 13:37:24;;;;;;;;;;;20.30;33.40;;;;;;4955203;28;19917;-61
2021/12/27 13:39:50;;;;;;;;;;;20.20;33.30;;;;;;4956210;28;19934;-61
2021/12/27 13:42:15;;;;;;;;;;;20.20;33.20;;;;;;4954489;29;20294;-61
2021/12/27 13:44:41;;;;;;;;;;;20.30;33.20;;;;;;4955945;28;19981;-61
2021/12/27 13:47:07;;;;;;;;;;;20.20;33.20;;;;;;4949073;29;19911;-62
2021/12/27 13:49:33;;;;;;;;;;;20.20;33.20;;;;;;4936881;29;19919;-61
2021/12/27 13:52:00;;;;;;;;;;;20.30;33.20;;;;;;4966747;28;20368;-61
2021/12/27 13:54:25;;;;;;;;;;;20.30;33.20;;;;;;4936996;29;19918;-61
2021/12/27 13:56:57;;;;;;;;;;;20.30;33.20;;;;;;4967279;28;20001;-61
2021/12/27 13:59:22;;;;;;;;;;;20.30;33.20;;;;;;4967531;28;19929;-61
2021/12/27 14:01:54;;;;;;;;;;;20.30;33.20;;;;;;4936458;29;20337;-61
2021/12/27 14:04:21;;;;;;;;;;;20.20;33.20;;;;;;4950598;28;19982;-61
2021/12/27 14:06:47;;;;;;;;;;;20.20;33.20;;;;;;4939072;28;20344;-61
2021/12/27 14:09:12;;;;;;;;;;;20.30;33.30;;;;;;4936301;29;19923;-61
2021/12/27 14:11:47;;;;;;;;;;;20.30;33.20;;;;;;4936057;29;19926;-61
2021/12/27 14:14:12;;;;;;;;;;;20.20;33.20;;;;;;4936507;28;19919;-61